Time;durP1;ratioP1;P1;durP2;ratioP2;P2;SDS_P1;SDS_P2;PMS_P1;PMS_P2;Temp;Humidity;BMP_temperature;BMP_pressure;BME280_temperature;BME280_humidity;BME280_pressure;Samples;Min_cycle;Max_cycle;Signal;HPM_P1;HPM_P2
2024/01/11 00:02:20;;;;;;;26.90;11.40;;;;;;;;;;5051570;28;20049;-68
2024/01/11 00:04:47;;;;;;;25.45;11.98;;;;;;;;;;5050863;28;20508;-69
2024/01/11 00:07:13;;;;;;;24.23;11.48;;;;;;;;;;5031206;28;20124;-70
2024/01/11 00:09:42;;;;;;;25.83;11.70;;;;;;;;;;5031832;28;20549;-70
2024/01/11 00:12:08;;;;;;;24.60;11.48;;;;;;;;;;5041926;28;20120;-70
2024/01/11 00:14:35;;;;;;;21.17;10.38;;;;;;;;;;5050945;28;20084;-70
2024/01/11 00:17:01;;;;;;;26.45;11.10;;;;;;;;;;5042372;28;20175;-70
2024/01/11 00:19:28;;;;;;;24.25;11.45;;;;;;;;;;5050835;28;20053;-69
2024/01/11 00:21:54;;;;;;;20.48;10.32;;;;;;;;;;5050061;28;20128;-69
2024/01/11 00:24:20;;;;;;;26.88;11.50;;;;;;;;;;5046617;28;20041;-69
2024/01/11 00:26:48;;;;;;;26.65;10.55;;;;;;;;;;5046893;28;20059;-70
2024/01/11 00:29:15;;;;;;;28.02;12.27;;;;;;;;;;5050577;28;20139;-69
2024/01/11 00:31:41;;;;;;;22.77;11.27;;;;;;;;;;5050645;28;20132;-69
2024/01/11 00:34:07;;;;;;;22.80;11.75;;;;;;;;;;5050693;28;20103;-69
2024/01/11 00:36:37;;;;;;;22.27;11.95;;;;;;;;;;5049579;28;20136;-69
2024/01/11 00:39:03;;;;;;;22.85;11.95;;;;;;;;;;5048960;28;20045;-69
2024/01/11 00:41:30;;;;;;;25.55;11.48;;;;;;;;;;5044949;28;20072;-69
2024/01/11 00:43:58;;;;;;;20.83;11.30;;;;;;;;;;5046584;28;20056;-69
2024/01/11 00:46:24;;;;;;;24.60;11.32;;;;;;;;;;5043888;28;20128;-69
2024/01/11 00:48:50;;;;;;;22.40;11.52;;;;;;;;;;5041914;28;20049;-69
2024/01/11 00:51:17;;;;;;;25.95;11.73;;;;;;;;;;5050907;28;20352;-69
2024/01/11 00:53:43;;;;;;;22.95;11.45;;;;;;;;;;5050080;28;20108;-69
2024/01/11 00:56:16;;;;;;;25.27;10.77;;;;;;;;;;5049669;28;20049;-69
2024/01/11 00:58:42;;;;;;;21.27;10.60;;;;;;;;;;5049755;28;20049;-68
2024/01/11 01:01:10;;;;;;;24.02;10.68;;;;;;;;;;5048883;28;20416;-69
2024/01/11 01:03:37;;;;;;;33.13;11.63;;;;;;;;;;5050648;28;20457;-69
2024/01/11 01:06:04;;;;;;;21.80;10.20;;;;;;;;;;5039849;28;20533;-69
2024/01/11 01:08:31;;;;;;;27.30;10.57;;;;;;;;;;5034860;28;20060;-69
2024/01/11 01:10:57;;;;;;;26.85;12.68;;;;;;;;;;5050419;28;20045;-69
2024/01/11 01:13:24;;;;;;;25.67;11.25;;;;;;;;;;5042331;28;20052;-69
2024/01/11 01:15:50;;;;;;;22.10;10.13;;;;;;;;;;5041787;28;20049;-69
2024/01/11 01:18:18;;;;;;;20.13;10.90;;;;;;;;;;5041720;28;20135;-69
2024/01/11 01:20:44;;;;;;;21.25;10.43;;;;;;;;;;5042555;28;20493;-69
2024/01/11 01:23:11;;;;;;;26.40;12.23;;;;;;;;;;5049817;28;20048;-69
2024/01/11 01:25:37;;;;;;;20.05;10.35;;;;;;;;;;5042977;28;20552;-69
2024/01/11 01:28:04;;;;;;;23.95;11.40;;;;;;;;;;5052506;28;20051;-69
2024/01/11 01:30:30;;;;;;;24.35;11.73;;;;;;;;;;5046016;28;20562;-69
2024/01/11 01:32:57;;;;;;;24.77;11.07;;;;;;;;;;5054048;28;20077;-69
2024/01/11 01:35:24;;;;;;;25.17;11.05;;;;;;;;;;5053645;28;20077;-69
2024/01/11 01:37:51;;;;;;;24.00;12.52;;;;;;;;;;5045593;28;20548;-69
2024/01/11 01:40:17;;;;;;;25.23;11.73;;;;;;;;;;5053997;28;20041;-69
2024/01/11 01:42:44;;;;;;;21.98;11.40;;;;;;;;;;5053788;28;20423;-69
2024/01/11 01:45:11;;;;;;;30.10;12.85;;;;;;;;;;5053680;28;20496;-69
2024/01/11 01:47:38;;;;;;;23.67;11.90;;;;;;;;;;5046543;28;20049;-69
2024/01/11 01:50:05;;;;;;;31.85;12.77;;;;;;;;;;5052772;28;20068;-69
2024/01/11 01:52:33;;;;;;;30.52;12.02;;;;;;;;;;5048269;28;20477;-69
2024/01/11 01:55:00;;;;;;;24.65;10.73;;;;;;;;;;5050448;28;20136;-69
2024/01/11 01:57:26;;;;;;;22.17;11.68;;;;;;;;;;5047027;28;20052;-69
2024/01/11 01:59:53;;;;;;;23.92;11.43;;;;;;;;;;5053533;28;20800;-69
2024/01/11 02:02:20;;;;;;;20.42;11.43;;;;;;;;;;5048855;28;20065;-69
2024/01/11 02:04:46;;;;;;;25.40;11.07;;;;;;;;;;5050176;28;20390;-69
2024/01/11 02:07:14;;;;;;;26.08;11.60;;;;;;;;;;5036820;28;20049;-69
2024/01/11 02:09:42;;;;;;;25.92;11.18;;;;;;;;;;5053320;28;20055;-69
2024/01/11 02:12:10;;;;;;;30.45;11.93;;;;;;;;;;5053250;28;20139;-69
2024/01/11 02:14:38;;;;;;;24.65;11.65;;;;;;;;;;5053650;28;20047;-69
2024/01/11 02:17:04;;;;;;;25.10;11.95;;;;;;;;;;5052133;28;20049;-69
2024/01/11 02:19:31;;;;;;;19.92;9.70;;;;;;;;;;5053708;28;20055;-69
2024/01/11 02:22:00;;;;;;;24.10;10.93;;;;;;;;;;5052073;28;20045;-69
2024/01/11 02:24:28;;;;;;;23.35;11.13;;;;;;;;;;5047639;28;20479;-69
2024/01/11 02:27:01;;;;;;;29.73;13.82;;;;;;;;;;5052740;28;20127;-69
2024/01/11 02:29:27;;;;;;;22.88;11.95;;;;;;;;;;5053243;28;20049;-70
2024/01/11 02:31:54;;;;;;;28.90;12.40;;;;;;;;;;5053051;28;20135;-69
2024/01/11 02:34:21;;;;;;;24.85;12.25;;;;;;;;;;5052740;28;20427;-69
2024/01/11 02:36:47;;;;;;;27.65;12.20;;;;;;;;;;5052330;28;20073;-69
2024/01/11 02:39:14;;;;;;;30.42;12.80;;;;;;;;;;5053219;28;20420;-69
2024/01/11 02:41:43;;;;;;;27.23;11.52;;;;;;;;;;5052907;28;20055;-69
2024/01/11 02:44:09;;;;;;;25.55;12.80;;;;;;;;;;5052029;28;20666;-69
2024/01/11 02:46:36;;;;;;;29.80;13.38;;;;;;;;;;5044120;28;20123;-69
2024/01/11 02:49:02;;;;;;;24.15;12.35;;;;;;;;;;5050389;28;20557;-69
2024/01/11 02:51:28;;;;;;;27.13;12.15;;;;;;;;;;5047409;28;20505;-69
2024/01/11 02:53:55;;;;;;;28.13;13.20;;;;;;;;;;5052440;28;20474;-69
2024/01/11 02:56:21;;;;;;;30.55;13.00;;;;;;;;;;5052447;28;20044;-69
2024/01/11 02:58:49;;;;;;;31.27;14.10;;;;;;;;;;5043818;28;20055;-69
2024/01/11 03:01:16;;;;;;;24.92;13.07;;;;;;;;;;5045680;28;20457;-69
2024/01/11 03:03:42;;;;;;;27.80;12.30;;;;;;;;;;5052595;28;20124;-69
2024/01/11 03:06:08;;;;;;;29.27;13.90;;;;;;;;;;5044481;28;20063;-69
2024/01/11 03:08:35;;;;;;;27.55;13.35;;;;;;;;;;5045774;28;20055;-69
2024/01/11 03:11:01;;;;;;;27.40;11.88;;;;;;;;;;5051983;28;20141;-69
2024/01/11 03:13:28;;;;;;;40.95;12.25;;;;;;;;;;5052945;28;20167;-69
2024/01/11 03:15:55;;;;;;;25.08;12.82;;;;;;;;;;5051937;28;20136;-69
2024/01/11 03:18:22;;;;;;;27.60;13.75;;;;;;;;;;5044547;28;20079;-69
2024/01/11 03:20:48;;;;;;;23.35;12.23;;;;;;;;;;5045370;28;20099;-69
2024/01/11 03:23:14;;;;;;;29.70;13.25;;;;;;;;;;5047694;28;20128;-70
2024/01/11 03:25:41;;;;;;;28.20;13.95;;;;;;;;;;5052348;28;20084;-69
2024/01/11 03:28:08;;;;;;;24.83;12.77;;;;;;;;;;5048968;28;20049;-69
2024/01/11 03:30:34;;;;;;;22.35;11.52;;;;;;;;;;5047822;28;20045;-69
2024/01/11 03:33:02;;;;;;;24.38;12.27;;;;;;;;;;5050484;28;20139;-69
2024/01/11 03:35:28;;;;;;;24.45;11.95;;;;;;;;;;5045674;28;20041;-69
2024/01/11 03:37:54;;;;;;;30.65;14.13;;;;;;;;;;5050687;28;20137;-69
2024/01/11 03:40:21;;;;;;;28.25;13.10;;;;;;;;;;5037114;28;20132;-69
2024/01/11 03:42:47;;;;;;;27.85;12.02;;;;;;;;;;5052057;28;20247;-69
2024/01/11 03:45:14;;;;;;;31.75;13.32;;;;;;;;;;5040394;28;20046;-69
2024/01/11 03:47:42;;;;;;;27.48;12.32;;;;;;;;;;5039289;28;20080;-69
2024/01/11 03:50:10;;;;;;;26.27;12.18;;;;;;;;;;5051908;28;20401;-69
2024/01/11 03:52:36;;;;;;;32.88;14.05;;;;;;;;;;5051781;28;20519;-69
2024/01/11 03:55:03;;;;;;;30.25;13.43;;;;;;;;;;5051236;28;20139;-69
2024/01/11 03:57:29;;;;;;;22.27;12.63;;;;;;;;;;5045812;28;20056;-69
2024/01/11 03:59:56;;;;;;;30.13;12.65;;;;;;;;;;5041224;28;20047;-69
2024/01/11 04:02:22;;;;;;;22.50;12.10;;;;;;;;;;5051741;28;20141;-69
2024/01/11 04:04:48;;;;;;;31.20;13.35;;;;;;;;;;5051716;28;20041;-70
2024/01/11 04:07:16;;;;;;;33.97;14.05;;;;;;;;;;5042672;28;20552;-69
2024/01/11 04:09:43;;;;;;;26.98;12.70;;;;;;;;;;5051669;28;20048;-69
2024/01/11 04:12:10;;;;;;;33.83;12.98;;;;;;;;;;5051295;28;20528;-68
2024/01/11 04:14:38;;;;;;;27.80;13.68;;;;;;;;;;5051173;28;20095;-68
2024/01/11 04:17:05;;;;;;;26.85;13.02;;;;;;;;;;5050576;28;20477;-68
2024/01/11 04:19:31;;;;;;;28.08;13.38;;;;;;;;;;5051280;28;20473;-68
2024/01/11 04:21:57;;;;;;;28.25;12.68;;;;;;;;;;5050410;28;20140;-67
2024/01/11 04:24:25;;;;;;;32.70;13.93;;;;;;;;;;5051515;28;20476;-68
2024/01/11 04:26:52;;;;;;;26.80;12.93;;;;;;;;;;5049734;28;20102;-67
2024/01/11 04:29:18;;;;;;;26.35;12.45;;;;;;;;;;5043250;28;20519;-67
2024/01/11 04:31:45;;;;;;;29.65;14.20;;;;;;;;;;5043308;28;20053;-68
2024/01/11 04:34:11;;;;;;;28.77;12.75;;;;;;;;;;5035230;28;20048;-68
2024/01/11 04:36:38;;;;;;;23.13;10.90;;;;;;;;;;5050118;28;20124;-68
2024/01/11 04:39:06;;;;;;;26.88;13.63;;;;;;;;;;5042923;28;20041;-68
2024/01/11 04:41:35;;;;;;;31.23;12.80;;;;;;;;;;5050602;28;20044;-66
2024/01/11 04:44:01;;;;;;;25.17;13.13;;;;;;;;;;5050502;28;20074;-68
2024/01/11 04:46:27;;;;;;;31.08;13.70;;;;;;;;;;5049835;28;20126;-68
2024/01/11 04:48:54;;;;;;;31.00;13.60;;;;;;;;;;5049939;28;20420;-68
2024/01/11 04:51:21;;;;;;;29.85;13.38;;;;;;;;;;5050461;28;20504;-68
2024/01/11 04:53:47;;;;;;;31.30;13.57;;;;;;;;;;5042995;28;20071;-68
2024/01/11 04:56:14;;;;;;;30.83;13.90;;;;;;;;;;5039155;28;20133;-68
2024/01/11 04:58:43;;;;;;;27.95;12.45;;;;;;;;;;5045822;28;20592;-67
2024/01/11 05:01:12;;;;;;;28.98;12.10;;;;;;;;;;5047829;28;20068;-67
2024/01/11 05:03:39;;;;;;;30.33;13.30;;;;;;;;;;5046075;28;20052;-67
2024/01/11 05:06:05;;;;;;;30.55;13.88;;;;;;;;;;5049949;28;20132;-67
2024/01/11 05:08:32;;;;;;;25.77;13.88;;;;;;;;;;5044388;28;20076;-67
2024/01/11 05:10:58;;;;;;;31.77;13.75;;;;;;;;;;5048448;28;20583;-67
2024/01/11 05:13:25;;;;;;;32.80;13.80;;;;;;;;;;5045255;28;20049;-67
2024/01/11 05:15:53;;;;;;;35.20;14.30;;;;;;;;;;5047322;28;20563;-67
2024/01/11 05:18:19;;;;;;;29.05;12.73;;;;;;;;;;5045522;28;20048;-67
2024/01/11 05:20:46;;;;;;;28.52;13.55;;;;;;;;;;5047147;28;20080;-68
2024/01/11 05:23:12;;;;;;;28.92;14.48;;;;;;;;;;5041975;28;20127;-68
2024/01/11 05:25:38;;;;;;;31.73;15.23;;;;;;;;;;5050003;28;20045;-68
2024/01/11 05:28:05;;;;;;;29.70;13.23;;;;;;;;;;5049446;28;20478;-67
2024/01/11 05:30:31;;;;;;;27.77;13.85;;;;;;;;;;5044030;28;20428;-68
2024/01/11 05:32:59;;;;;;;30.60;13.95;;;;;;;;;;5039286;28;20050;-67
2024/01/11 05:35:27;;;;;;;26.08;13.18;;;;;;;;;;5043908;28;20477;-67
2024/01/11 05:37:54;;;;;;;29.88;13.85;;;;;;;;;;5048728;28;20426;-68
2024/01/11 05:40:21;;;;;;;31.42;14.43;;;;;;;;;;5049796;28;20132;-67
2024/01/11 05:42:47;;;;;;;32.10;13.68;;;;;;;;;;5049660;28;20373;-67
2024/01/11 05:45:16;;;;;;;27.60;12.82;;;;;;;;;;5046160;28;20542;-67
2024/01/11 05:47:43;;;;;;;31.98;15.55;;;;;;;;;;5046098;28;20501;-68
2024/01/11 05:50:11;;;;;;;28.15;13.43;;;;;;;;;;5049425;28;20063;-68
2024/01/11 05:52:37;;;;;;;28.27;14.27;;;;;;;;;;5035891;28;20726;-67
2024/01/11 05:55:04;;;;;;;31.50;14.05;;;;;;;;;;5048475;28;20580;-67
2024/01/11 05:57:31;;;;;;;30.80;13.45;;;;;;;;;;5042948;28;20060;-67
2024/01/11 05:59:57;;;;;;;37.47;14.85;;;;;;;;;;5047116;28;20137;-67
2024/01/11 06:02:24;;;;;;;31.45;14.23;;;;;;;;;;5043590;28;20142;-67
2024/01/11 06:04:50;;;;;;;31.25;12.93;;;;;;;;;;5049669;28;20471;-67
2024/01/11 06:07:18;;;;;;;31.80;14.48;;;;;;;;;;5049131;28;20073;-67
2024/01/11 06:09:44;;;;;;;31.70;13.50;;;;;;;;;;5051893;28;20128;-67
2024/01/11 06:12:11;;;;;;;31.42;14.88;;;;;;;;;;5053155;28;20560;-67
2024/01/11 06:14:37;;;;;;;29.63;12.95;;;;;;;;;;5045375;28;20135;-67
2024/01/11 06:17:04;;;;;;;32.15;14.27;;;;;;;;;;5050498;28;20051;-68
2024/01/11 06:19:30;;;;;;;33.47;15.20;;;;;;;;;;5047679;28;20052;-67
2024/01/11 06:21:57;;;;;;;27.45;13.38;;;;;;;;;;5045726;28;20136;-68
2024/01/11 06:24:24;;;;;;;29.02;13.48;;;;;;;;;;5053524;28;20483;-67
2024/01/11 06:26:51;;;;;;;26.67;14.23;;;;;;;;;;5052248;28;20055;-67
2024/01/11 06:32:20;;;;;;;29.15;13.15;;;;;;;;;;5038185;28;20048;-67
2024/01/11 06:34:47;;;;;;;27.38;13.40;;;;;;;;;;5052788;28;20047;-67
2024/01/11 06:37:13;;;;;;;30.75;14.30;;;;;;;;;;5052232;28;20045;-67
2024/01/11 06:39:41;;;;;;;31.23;15.65;;;;;;;;;;5052291;28;20041;-67
2024/01/11 06:42:08;;;;;;;34.75;14.50;;;;;;;;;;5053000;28;20056;-67
2024/01/11 06:44:34;;;;;;;27.33;12.52;;;;;;;;;;5053243;28;20132;-68
2024/01/11 06:47:01;;;;;;;34.90;13.10;;;;;;;;;;5050096;28;20053;-67
2024/01/11 06:49:28;;;;;;;29.20;13.48;;;;;;;;;;5046722;28;20049;-67
2024/01/11 06:51:54;;;;;;;31.77;14.27;;;;;;;;;;5052762;28;20409;-67
2024/01/11 06:54:20;;;;;;;27.90;14.25;;;;;;;;;;5048291;28;20049;-67
2024/01/11 06:56:48;;;;;;;31.35;14.20;;;;;;;;;;5048622;28;20167;-68
2024/01/11 06:59:15;;;;;;;33.33;15.63;;;;;;;;;;5045079;28;20363;-68
2024/01/11 07:01:41;;;;;;;29.42;15.00;;;;;;;;;;5052866;28;20045;-67
2024/01/11 07:04:07;;;;;;;27.48;14.27;;;;;;;;;;5052106;28;20048;-69
2024/01/11 07:06:34;;;;;;;31.98;14.57;;;;;;;;;;5051961;28;20041;-69
2024/01/11 07:09:00;;;;;;;29.23;13.15;;;;;;;;;;5052605;28;20041;-69
2024/01/11 07:11:27;;;;;;;30.13;12.68;;;;;;;;;;5052984;28;20041;-69
2024/01/11 07:13:55;;;;;;;30.13;13.20;;;;;;;;;;5052928;28;20053;-69
2024/01/11 07:16:22;;;;;;;36.85;13.82;;;;;;;;;;5052580;28;20045;-69
2024/01/11 07:18:48;;;;;;;27.92;12.43;;;;;;;;;;5052227;28;20044;-69
2024/01/11 07:21:20;;;;;;;25.75;12.23;;;;;;;;;;5044438;28;20190;-69
2024/01/11 07:23:47;;;;;;;27.85;14.20;;;;;;;;;;5052768;28;20128;-69
2024/01/11 07:26:13;;;;;;;34.58;13.93;;;;;;;;;;5051931;28;20048;-71
2024/01/11 07:28:39;;;;;;;30.15;13.50;;;;;;;;;;5052067;28;20048;-69
2024/01/11 07:31:07;;;;;;;30.98;13.45;;;;;;;;;;5052368;28;20053;-68
2024/01/11 07:33:34;;;;;;;30.90;13.82;;;;;;;;;;5052432;28;20055;-69
2024/01/11 07:36:00;;;;;;;29.30;13.45;;;;;;;;;;5052023;28;20519;-69
2024/01/11 07:38:26;;;;;;;35.95;15.18;;;;;;;;;;5052054;28;20159;-69
2024/01/11 07:40:53;;;;;;;28.23;13.55;;;;;;;;;;5052580;28;20094;-69
2024/01/11 07:43:19;;;;;;;25.70;12.13;;;;;;;;;;5052633;28;20052;-69
2024/01/11 07:45:46;;;;;;;30.05;13.30;;;;;;;;;;5052107;28;20048;-69
2024/01/11 07:48:13;;;;;;;29.02;13.50;;;;;;;;;;5051405;28;20045;-68
2024/01/11 07:50:40;;;;;;;30.50;12.68;;;;;;;;;;5052093;28;20047;-69
2024/01/11 07:53:06;;;;;;;27.30;11.88;;;;;;;;;;5052039;28;20057;-69
2024/01/11 07:55:33;;;;;;;29.02;12.98;;;;;;;;;;5051931;28;20049;-69
2024/01/11 07:57:59;;;;;;;26.75;12.85;;;;;;;;;;5051805;28;20127;-69
2024/01/11 08:00:26;;;;;;;31.35;14.27;;;;;;;;;;5052184;28;20447;-70
2024/01/11 08:02:54;;;;;;;30.55;13.77;;;;;;;;;;5043796;28;20053;-70
2024/01/11 08:05:22;;;;;;;32.70;13.88;;;;;;;;;;5051634;28;20103;-70
2024/01/11 08:07:48;;;;;;;25.25;11.93;;;;;;;;;;5051694;28;20041;-70
2024/01/11 08:10:15;;;;;;;23.17;12.10;;;;;;;;;;5043954;28;20489;-69
2024/01/11 08:12:41;;;;;;;29.17;11.38;;;;;;;;;;5051661;28;20045;-69
2024/01/11 08:15:10;;;;;;;36.67;14.45;;;;;;;;;;5040667;28;20424;-69
2024/01/11 08:17:37;;;;;;;26.98;13.05;;;;;;;;;;5046306;28;20497;-69
2024/01/11 08:20:07;;;;;;;31.95;14.18;;;;;;;;;;5051412;28;20128;-69
2024/01/11 08:22:36;;;;;;;24.88;12.60;;;;;;;;;;5051047;28;20462;-68
2024/01/11 08:25:04;;;;;;;31.98;13.30;;;;;;;;;;5050645;28;20049;-70
2024/01/11 08:27:31;;;;;;;28.13;13.38;;;;;;;;;;5051036;28;20055;-69
2024/01/11 08:29:57;;;;;;;28.95;12.63;;;;;;;;;;5050708;28;20137;-68
2024/01/11 08:32:24;;;;;;;33.95;13.60;;;;;;;;;;5049957;28;20477;-68
2024/01/11 08:34:50;;;;;;;26.90;15.15;;;;;;;;;;5051275;28;20398;-68
2024/01/11 08:37:16;;;;;;;27.88;12.55;;;;;;;;;;5050454;28;20401;-69
2024/01/11 08:39:46;;;;;;;35.45;13.82;;;;;;;;;;5051017;28;20067;-69
2024/01/11 08:42:12;;;;;;;25.92;12.13;;;;;;;;;;5042444;28;20049;-69
2024/01/11 08:44:42;;;;;;;26.60;12.93;;;;;;;;;;5050787;28;20077;-69
2024/01/11 08:47:09;;;;;;;27.83;13.82;;;;;;;;;;5049886;28;20056;-69
2024/01/11 08:49:38;;;;;;;33.00;14.38;;;;;;;;;;5050733;28;20099;-68
2024/01/11 08:52:06;;;;;;;30.88;14.00;;;;;;;;;;5050940;28;20064;-70
2024/01/11 08:54:32;;;;;;;32.30;12.82;;;;;;;;;;5051037;28;20041;-69
2024/01/11 08:57:01;;;;;;;28.60;14.63;;;;;;;;;;5048911;28;20040;-68
2024/01/11 08:59:27;;;;;;;28.33;13.95;;;;;;;;;;5042760;28;20068;-68
2024/01/11 09:01:53;;;;;;;28.45;13.35;;;;;;;;;;5034825;28;20054;-68
2024/01/11 09:04:20;;;;;;;27.65;12.10;;;;;;;;;;5042555;28;20045;-69
2024/01/11 09:06:46;;;;;;;31.25;13.70;;;;;;;;;;5047768;28;20121;-69
2024/01/11 09:09:13;;;;;;;32.40;14.00;;;;;;;;;;5040785;28;20045;-69
2024/01/11 09:11:40;;;;;;;35.92;14.07;;;;;;;;;;5044167;28;20095;-69
2024/01/11 09:14:10;;;;;;;32.33;14.15;;;;;;;;;;5040567;28;20178;-69
2024/01/11 09:16:37;;;;;;;28.52;12.93;;;;;;;;;;5048001;28;20045;-69
2024/01/11 09:19:04;;;;;;;25.48;12.00;;;;;;;;;;5048569;28;20122;-69
2024/01/11 09:21:30;;;;;;;27.73;12.32;;;;;;;;;;5043197;28;20073;-70
2024/01/11 09:23:57;;;;;;;28.05;13.80;;;;;;;;;;5046560;28;20135;-69
2024/01/11 09:26:23;;;;;;;25.25;12.00;;;;;;;;;;5037414;28;20103;-68
2024/01/11 09:28:50;;;;;;;35.25;14.32;;;;;;;;;;5037814;28;20120;-69
2024/01/11 09:31:17;;;;;;;30.55;13.57;;;;;;;;;;5048605;28;20553;-68
2024/01/11 09:33:45;;;;;;;26.98;13.77;;;;;;;;;;5049094;28;20045;-69
2024/01/11 09:36:11;;;;;;;30.77;13.80;;;;;;;;;;5038224;28;20378;-69
2024/01/11 09:38:38;;;;;;;32.03;14.10;;;;;;;;;;5042978;28;20048;-69
2024/01/11 09:41:08;;;;;;;28.20;13.32;;;;;;;;;;5047138;28;20060;-69
2024/01/11 09:43:34;;;;;;;28.15;13.55;;;;;;;;;;5039793;28;20452;-68
2024/01/11 09:46:02;;;;;;;28.30;12.65;;;;;;;;;;5035445;28;20045;-69
2024/01/11 09:48:30;;;;;;;28.25;13.55;;;;;;;;;;5044439;28;20051;-69
2024/01/11 09:50:57;;;;;;;36.13;14.73;;;;;;;;;;5037361;28;20479;-68
2024/01/11 09:53:24;;;;;;;30.52;13.23;;;;;;;;;;5047563;28;20412;-69
2024/01/11 09:55:50;;;;;;;27.77;13.10;;;;;;;;;;5044981;28;20054;-68
2024/01/11 09:58:17;;;;;;;25.38;12.38;;;;;;;;;;5052243;28;20048;-69
2024/01/11 10:00:44;;;;;;;29.83;13.70;;;;;;;;;;5045366;28;20119;-69
2024/01/11 10:03:10;;;;;;;30.67;12.32;;;;;;;;;;5041936;28;20755;-68
2024/01/11 10:05:39;;;;;;;28.58;13.13;;;;;;;;;;5047908;28;20132;-69
2024/01/11 10:08:05;;;;;;;29.67;13.23;;;;;;;;;;5044013;28;20056;-69
2024/01/11 10:10:32;;;;;;;25.20;13.10;;;;;;;;;;5046077;28;20084;-69
2024/01/11 10:12:59;;;;;;;25.90;11.57;;;;;;;;;;5042870;28;20480;-68
2024/01/11 10:15:25;;;;;;;32.40;13.60;;;;;;;;;;5047864;28;20053;-69
2024/01/11 10:17:52;;;;;;;31.08;13.77;;;;;;;;;;5041512;28;20057;-69
2024/01/11 10:20:23;;;;;;;31.38;12.60;;;;;;;;;;5044556;28;20124;-69
2024/01/11 10:22:52;;;;;;;28.23;12.85;;;;;;;;;;5053074;28;20124;-69
2024/01/11 10:25:18;;;;;;;26.98;11.98;;;;;;;;;;5052127;28;20110;-69
2024/01/11 10:27:45;;;;;;;29.40;13.20;;;;;;;;;;5044431;28;20045;-68
2024/01/11 10:30:13;;;;;;;28.27;13.25;;;;;;;;;;5051839;28;20053;-69
2024/01/11 10:32:39;;;;;;;24.65;11.45;;;;;;;;;;5044536;28;20049;-68
2024/01/11 10:35:06;;;;;;;24.25;11.48;;;;;;;;;;5051371;28;20314;-69
2024/01/11 10:37:33;;;;;;;25.60;11.77;;;;;;;;;;5052546;28;20099;-69
2024/01/11 10:40:03;;;;;;;27.77;12.82;;;;;;;;;;5050632;28;20053;-69
2024/01/11 10:42:32;;;;;;;28.50;13.23;;;;;;;;;;5042707;28;20050;-69
2024/01/11 10:45:00;;;;;;;28.33;12.38;;;;;;;;;;5048220;28;20072;-68
2024/01/11 10:47:28;;;;;;;24.00;11.25;;;;;;;;;;5040670;28;20049;-69
2024/01/11 10:49:58;;;;;;;23.23;11.23;;;;;;;;;;5041468;28;20570;-69
2024/01/11 10:52:28;;;;;;;23.25;11.98;;;;;;;;;;5052333;28;20048;-68
2024/01/11 10:54:55;;;;;;;26.48;10.55;;;;;;;;;;5043330;28;20044;-69
2024/01/11 10:57:23;;;;;;;27.25;11.85;;;;;;;;;;5043338;28;20045;-68
2024/01/11 10:59:50;;;;;;;25.75;12.98;;;;;;;;;;5051446;28;20423;-70
2024/01/11 11:02:17;;;;;;;28.10;12.20;;;;;;;;;;5044724;28;20564;-69
2024/01/11 11:04:44;;;;;;;26.23;11.73;;;;;;;;;;5052504;28;20057;-69
2024/01/11 11:07:12;;;;;;;25.83;11.32;;;;;;;;;;5051023;28;20057;-69
2024/01/11 11:09:43;;;;;;;25.00;11.05;;;;;;;;;;5051959;28;20063;-68
2024/01/11 11:12:10;;;;;;;25.33;11.30;;;;;;;;;;5044149;28;20059;-69
2024/01/11 11:14:39;;;;;;;27.67;12.10;;;;;;;;;;5051683;28;20083;-68
2024/01/11 11:17:06;;;;;;;23.55;10.98;;;;;;;;;;5036123;28;20402;-69
2024/01/11 11:19:32;;;;;;;25.50;11.13;;;;;;;;;;5048318;28;20051;-68
2024/01/11 11:21:59;;;;;;;23.85;9.93;;;;;;;;;;5049982;28;20041;-69
2024/01/11 11:24:26;;;;;;;22.83;10.63;;;;;;;;;;5045735;28;20056;-68
2024/01/11 11:26:52;;;;;;;22.35;10.73;;;;;;;;;;5042122;28;20135;-68
2024/01/11 11:29:20;;;;;;;23.85;10.55;;;;;;;;;;5043920;28;20045;-68
2024/01/11 11:31:53;;;;;;;21.00;10.40;;;;;;;;;;5043963;28;20205;-70
2024/01/11 11:34:20;;;;;;;20.75;10.05;;;;;;;;;;5051263;28;20053;-69
2024/01/11 11:36:47;;;;;;;24.38;9.95;;;;;;;;;;5042833;28;20136;-68
2024/01/11 11:39:14;;;;;;;21.73;10.15;;;;;;;;;;5043778;28;20068;-69
2024/01/11 11:41:42;;;;;;;24.75;10.68;;;;;;;;;;5051157;28;20049;-68
2024/01/11 11:44:08;;;;;;;18.77;9.45;;;;;;;;;;5043857;28;20052;-68
2024/01/11 11:46:35;;;;;;;24.25;10.52;;;;;;;;;;5042048;28;20041;-68
2024/01/11 11:49:02;;;;;;;21.52;9.38;;;;;;;;;;5043798;28;20482;-68
2024/01/11 11:51:29;;;;;;;24.77;10.00;;;;;;;;;;5048297;28;20408;-68
2024/01/11 11:53:55;;;;;;;22.88;10.65;;;;;;;;;;5050866;28;20052;-68
2024/01/11 11:56:22;;;;;;;20.63;10.00;;;;;;;;;;5050085;28;20416;-68
2024/01/11 11:58:52;;;;;;;24.10;9.80;;;;;;;;;;5050567;28;20055;-69
2024/01/11 12:01:18;;;;;;;25.60;10.07;;;;;;;;;;5036365;28;20420;-68
2024/01/11 12:03:49;;;;;;;22.60;10.13;;;;;;;;;;5051162;28;20053;-69
2024/01/11 12:06:17;;;;;;;23.30;9.32;;;;;;;;;;5049581;28;20052;-68
2024/01/11 12:08:44;;;;;;;21.08;9.65;;;;;;;;;;5049740;28;20420;-68
2024/01/11 12:11:13;;;;;;;22.63;9.25;;;;;;;;;;5049924;28;20110;-68
2024/01/11 12:13:40;;;;;;;20.40;9.40;;;;;;;;;;5049996;28;20052;-68
2024/01/11 12:16:07;;;;;;;18.88;9.13;;;;;;;;;;5040410;28;20053;-68
2024/01/11 12:18:33;;;;;;;17.45;9.20;;;;;;;;;;5047018;28;20408;-69
2024/01/11 12:21:00;;;;;;;22.80;9.05;;;;;;;;;;5041181;28;20049;-69
2024/01/11 12:23:29;;;;;;;23.58;9.82;;;;;;;;;;5035901;28;20428;-69
2024/01/11 12:25:56;;;;;;;19.23;8.38;;;;;;;;;;5048979;28;20052;-69
2024/01/11 12:28:23;;;;;;;18.08;8.63;;;;;;;;;;5043541;28;20045;-70
2024/01/11 12:30:49;;;;;;;19.40;8.85;;;;;;;;;;5050280;28;20069;-68
2024/01/11 12:33:16;;;;;;;19.92;8.30;;;;;;;;;;5042515;28;20045;-69
2024/01/11 12:35:42;;;;;;;19.80;8.98;;;;;;;;;;5041678;28;20333;-68
2024/01/11 12:38:09;;;;;;;17.35;8.65;;;;;;;;;;5048617;28;20044;-69
2024/01/11 12:40:38;;;;;;;17.25;8.52;;;;;;;;;;5050408;28;20044;-68
2024/01/11 12:43:04;;;;;;;17.80;8.80;;;;;;;;;;5050234;28;20049;-68
2024/01/11 12:45:32;;;;;;;18.33;8.75;;;;;;;;;;5044347;28;20045;-69
2024/01/11 12:47:59;;;;;;;17.13;8.52;;;;;;;;;;5039064;28;20056;-68
2024/01/11 12:50:27;;;;;;;15.13;7.78;;;;;;;;;;5033197;28;20452;-68
2024/01/11 12:53:05;;;;;;;20.92;7.97;;;;;;;;;;5040105;28;20048;-69
2024/01/11 12:55:34;;;;;;;16.58;8.30;;;;;;;;;;5031100;28;20053;-68
2024/01/11 12:58:05;;;;;;;14.57;7.38;;;;;;;;;;5040105;28;20566;-69
2024/01/11 13:00:32;;;;;;;17.48;7.45;;;;;;;;;;5049896;28;20048;-68
2024/01/11 13:02:58;;;;;;;19.25;8.18;;;;;;;;;;5040819;28;20041;-68
2024/01/11 13:05:26;;;;;;;18.77;8.07;;;;;;;;;;5039326;28;20053;-68
2024/01/11 13:07:52;;;;;;;17.38;8.18;;;;;;;;;;5030126;28;20482;-68
2024/01/11 13:10:18;;;;;;;18.17;8.30;;;;;;;;;;5046420;28;20046;-68
2024/01/11 13:12:46;;;;;;;13.80;7.35;;;;;;;;;;5046841;28;20102;-67
2024/01/11 13:15:14;;;;;;;18.92;8.07;;;;;;;;;;5049810;28;20420;-68
2024/01/11 13:17:40;;;;;;;15.65;7.70;;;;;;;;;;5043381;28;20049;-69
2024/01/11 13:20:07;;;;;;;15.88;7.20;;;;;;;;;;5051197;28;20041;-68
2024/01/11 13:22:33;;;;;;;15.15;7.88;;;;;;;;;;5047911;28;20515;-70
2024/01/11 13:25:00;;;;;;;21.25;8.80;;;;;;;;;;5053949;28;20049;-69
2024/01/11 13:27:26;;;;;;;17.88;8.20;;;;;;;;;;5054146;28;20041;-69
2024/01/11 13:29:53;;;;;;;19.65;8.13;;;;;;;;;;5053954;28;20059;-69
2024/01/11 13:32:22;;;;;;;17.27;7.45;;;;;;;;;;5050568;28;20049;-69
2024/01/11 13:34:48;;;;;;;17.20;7.45;;;;;;;;;;5043113;28;20107;-69
2024/01/11 13:37:15;;;;;;;15.98;7.68;;;;;;;;;;5044288;28;20494;-69
2024/01/11 13:39:41;;;;;;;17.33;7.88;;;;;;;;;;5048926;28;20075;-70
2024/01/11 13:42:09;;;;;;;27.40;10.30;;;;;;;;;;5050649;28;20080;-69
2024/01/11 13:44:36;;;;;;;15.80;8.65;;;;;;;;;;5042311;28;20128;-69
2024/01/11 13:47:03;;;;;;;20.88;9.48;;;;;;;;;;5042443;28;20057;-70
2024/01/11 13:49:31;;;;;;;17.45;9.05;;;;;;;;;;5053151;28;20049;-69
2024/01/11 13:51:57;;;;;;;20.90;8.50;;;;;;;;;;5045169;28;20600;-69
2024/01/11 13:54:24;;;;;;;18.88;8.57;;;;;;;;;;5048770;28;20050;-69
2024/01/11 13:56:51;;;;;;;16.90;7.78;;;;;;;;;;5041073;28;20505;-70
2024/01/11 13:59:18;;;;;;;18.33;7.65;;;;;;;;;;5042175;28;20056;-70
2024/01/11 14:01:44;;;;;;;16.25;7.65;;;;;;;;;;5049558;28;20519;-69
2024/01/11 14:04:10;;;;;;;15.98;8.63;;;;;;;;;;5053215;28;20059;-70
2024/01/11 14:06:38;;;;;;;16.58;8.35;;;;;;;;;;5044651;28;20455;-69
2024/01/11 14:09:09;;;;;;;17.48;8.52;;;;;;;;;;5044725;28;20417;-70
2024/01/11 14:11:35;;;;;;;14.10;7.50;;;;;;;;;;5038431;28;20045;-70
2024/01/11 14:14:02;;;;;;;14.70;8.00;;;;;;;;;;5052173;28;20110;-69
2024/01/11 14:16:28;;;;;;;13.77;7.38;;;;;;;;;;5052120;28;20049;-67
2024/01/11 14:18:55;;;;;;;12.38;6.55;;;;;;;;;;5053566;28;20485;-67
2024/01/11 14:21:21;;;;;;;12.88;6.63;;;;;;;;;;5055497;28;20045;-68